Time;durP1;ratioP1;P1;durP2;ratioP2;P2;SDS_P1;SDS_P2;PMS_P1;PMS_P2;Temp;Humidity;BMP_temperature;BMP_pressure;BME280_temperature;BME280_humidity;BME280_pressure;Samples;Min_cycle;Max_cycle;Signal;HPM_P1;HPM_P2
2021/12/14 07:59:47;;;;;;;30.83;19.23;;;;;;;7.45;95.37;102615.56;5399831;27;20418;-79
2021/12/14 08:02:30;;;;;;;28.77;22.08;;;;;;;7.51;95.66;102626.53;5386419;27;20594;-78
2021/12/14 08:05:16;;;;;;;25.45;18.83;;;;;;;7.50;95.30;102635.91;5385773;27;20437;-80
2021/12/14 08:07:53;;;;;;;27.00;20.33;;;;;;;7.54;95.12;102631.63;5377564;27;20031;-78
2021/12/14 08:10:32;;;;;;;30.05;20.80;;;;;;;7.58;95.45;102638.38;5381985;27;20035;-78
2021/12/14 08:13:08;;;;;;;28.92;20.15;;;;;;;7.86;97.23;102633.47;5379170;27;20033;-76
2021/12/14 08:15:50;;;;;;;27.85;19.60;;;;;;;7.82;96.31;102636.69;5383847;27;20018;-76
2021/12/14 08:18:31;;;;;;;28.08;20.45;;;;;;;7.87;95.16;102629.59;5372849;27;20026;-76
2021/12/14 08:21:12;;;;;;;24.20;18.13;;;;;;;7.90;94.40;102624.50;5383961;27;20479;-75
2021/12/14 08:23:54;;;;;;;23.63;18.30;;;;;;;7.88;93.59;102628.56;5375380;27;20019;-74
2021/12/14 08:26:28;;;;;;;27.38;18.60;;;;;;;8.05;94.54;102627.72;5372745;27;20030;-72
2021/12/14 08:29:02;;;;;;;31.98;20.35;;;;;;;8.03;94.63;102637.31;5377101;27;20019;-73
2021/12/14 08:31:38;;;;;;;26.63;19.35;;;;;;;7.91;93.41;102633.63;5382231;27;20065;-71
2021/12/14 08:34:13;;;;;;;24.92;18.70;;;;;;;7.99;94.04;102636.06;5385356;27;20038;-71
2021/12/14 08:37:15;;;;;;;23.23;18.03;;;;;;;7.97;92.97;102633.53;5384224;27;20095;-70
2021/12/14 08:40:03;;;;;;;26.13;20.02;;;;;;;7.98;92.60;102632.47;5387998;27;20034;-71
2021/12/14 08:43:12;;;;;;;25.38;19.10;;;;;;;8.01;93.59;102634.78;5384631;27;20034;-73
2021/12/14 08:45:48;;;;;;;27.58;19.50;;;;;;;8.02;92.66;102646.66;5384509;27;20342;-74
2021/12/14 08:48:38;;;;;;;28.15;20.65;;;;;;;8.04;92.75;102642.59;5384555;27;20041;-72
2021/12/14 08:51:13;;;;;;;26.90;19.33;;;;;;;7.98;92.73;102640.75;5384950;27;20038;-72
2021/12/14 08:53:58;;;;;;;24.70;19.85;;;;;;;7.99;92.96;102633.31;5381605;27;20022;-74
2021/12/14 08:56:33;;;;;;;26.90;19.65;;;;;;;8.04;93.15;102636.22;5377419;27;20106;-73
2021/12/14 08:59:05;;;;;;;24.73;20.00;;;;;;;8.06;92.86;102639.63;5382155;27;20417;-73
2021/12/14 09:01:42;;;;;;;24.88;19.67;;;;;;;8.08;93.13;102648.53;5383614;27;20034;-73
2021/12/14 09:04:25;;;;;;;29.48;20.23;;;;;;;8.09;92.72;102652.97;5384654;27;20367;-72
2021/12/14 09:07:01;;;;;;;28.23;20.60;;;;;;;8.09;93.17;102649.38;5384404;27;20482;-72
2021/12/14 09:09:32;;;;;;;;;;;;;;;8.23;92.91;102657.28;5374410;27;20018;-70
2021/12/14 09:12:03;;;;;;;25.75;20.50;;;;;;;8.20;92.52;102652.19;5366017;27;19919;-70
2021/12/14 09:14:35;;;;;;;27.85;19.58;;;;;;;8.17;92.60;102651.81;5369203;27;20027;-71
2021/12/14 09:17:10;;;;;;;27.55;21.58;;;;;;;8.18;92.61;102654.38;5364706;27;20033;-72
2021/12/14 09:19:49;;;;;;;31.33;22.00;;;;;;;8.19;92.27;102656.03;5363957;27;20102;-70
2021/12/14 09:22:29;;;;;;;28.92;21.92;;;;;;;8.17;92.00;102663.72;5369959;27;20382;-71
2021/12/14 09:25:02;;;;;;;26.23;20.90;;;;;;;8.15;92.38;102660.34;5358910;27;20023;-70
2021/12/14 09:27:34;;;;;;;27.20;22.38;;;;;;;8.14;92.52;102661.41;5366016;27;20030;-72
2021/12/14 09:30:09;;;;;;;27.55;20.83;;;;;;;8.21;92.22;102664.97;5368077;27;20271;-71
2021/12/14 09:32:42;;;;;;;29.63;22.00;;;;;;;8.25;92.36;102670.88;5369638;27;20054;-71
2021/12/14 09:35:19;;;;;;;30.17;22.45;;;;;;;8.25;92.40;102659.81;5363230;27;20023;-71
2021/12/14 09:37:54;;;;;;;28.05;22.15;;;;;;;8.25;92.24;102659.81;5351414;27;20026;-71
2021/12/14 09:40:33;;;;;;;27.13;20.90;;;;;;;8.26;92.61;102658.75;5367926;27;20023;-75
2021/12/14 09:43:06;;;;;;;28.63;20.98;;;;;;;8.24;92.45;102660.91;5369167;27;20033;-72
2021/12/14 09:45:46;;;;;;;31.15;23.05;;;;;;;8.26;92.14;102661.50;5369644;27;20027;-72
2021/12/14 09:48:27;;;;;;;32.58;21.45;;;;;;;8.29;92.64;102661.06;5369534;27;20385;-72
2021/12/14 09:51:07;;;;;;;26.27;20.63;;;;;;;8.27;91.92;102650.22;5367649;27;20023;-71
2021/12/14 09:53:44;;;;;;;24.33;18.20;;;;;;;8.37;92.96;102646.91;5369811;27;20393;-73
2021/12/14 09:56:20;;;;;;;29.58;23.52;;;;;;;8.28;92.45;102643.63;5363939;27;20027;-70
2021/12/14 09:58:58;;;;;;;29.48;21.13;;;;;;;8.27;92.44;102636.38;5359816;27;20126;-71
2021/12/14 10:01:38;;;;;;;30.58;22.83;;;;;;;8.27;92.72;102636.38;5366029;27;20548;-69
2021/12/14 10:04:15;;;;;;;30.33;21.83;;;;;;;8.29;92.26;102638.94;5363221;27;20055;-69
2021/12/14 10:06:49;;;;;;;30.73;22.70;;;;;;;8.34;91.97;102635.47;5366745;27;20077;-69
2021/12/14 10:09:25;;;;;;;32.25;21.98;;;;;;;8.30;91.91;102639.78;5366454;27;20031;-69
2021/12/14 10:14:38;;;;;;;34.15;24.23;;;;;;;8.40;92.19;102634.56;5368842;27;19919;-71
2021/12/14 10:17:13;;;;;;;31.90;22.48;;;;;;;8.40;92.38;102645.63;5367905;27;20474;-70
2021/12/14 10:19:46;;;;;;;29.65;22.70;;;;;;;8.42;92.49;102643.50;5365398;27;20069;-71
2021/12/14 10:22:25;;;;;;;33.53;21.92;;;;;;;8.42;92.14;102646.25;5367669;27;20054;-71
2021/12/14 10:25:02;;;;;;;28.65;22.23;;;;;;;8.46;92.16;102653.00;5351253;27;20045;-71
2021/12/14 10:27:35;;;;;;;32.13;20.08;;;;;;;8.47;91.43;102657.47;5360194;27;20503;-73
2021/12/14 10:30:18;;;;;;;30.15;21.42;;;;;;;8.52;91.99;102648.47;5364620;27;20595;-71
2021/12/14 10:32:50;;;;;;;31.40;25.05;;;;;;;8.57;93.29;102657.75;5367751;27;20014;-72
2021/12/14 10:35:25;;;;;;;36.15;23.92;;;;;;;8.59;92.22;102655.63;5367311;27;20026;-72
2021/12/14 10:38:08;;;;;;;31.90;22.75;;;;;;;8.64;91.97;102649.38;5364102;27;20521;-69
2021/12/14 10:43:36;;;;;;;31.67;23.23;;;;;;;8.60;92.12;102657.28;5365924;27;20027;-68
2021/12/14 10:46:15;;;;;;;29.92;22.98;;;;;;;8.67;92.08;102658.06;5361387;27;20059;-71
2021/12/14 10:48:48;;;;;;;32.13;22.90;;;;;;;8.62;91.55;102660.69;5362960;27;20470;-71
2021/12/14 10:51:24;;;;;;;31.10;23.42;;;;;;;8.55;91.88;102664.59;5353922;27;20043;-70
2021/12/14 10:53:58;;;;;;;30.15;23.38;;;;;;;8.55;92.14;102659.91;5364736;27;20079;-68
2021/12/14 10:56:40;;;;;;;33.45;23.40;;;;;;;8.58;92.61;102653.91;5363822;27;20018;-69
2021/12/14 10:59:15;;;;;;;41.22;31.83;;;;;;;8.57;92.38;102656.94;5358258;27;20482;-70
2021/12/14 11:01:50;;;;;;;32.95;23.27;;;;;;;8.61;92.50;102647.91;5347139;27;20030;-71
2021/12/14 11:04:34;;;;;;;32.95;22.30;;;;;;;8.59;91.86;102650.09;5347250;27;20025;-70
2021/12/14 11:07:14;;;;;;;33.42;24.08;;;;;;;8.60;92.01;102646.22;5353526;27;20114;-72
2021/12/14 11:09:49;;;;;;;36.45;23.23;;;;;;;8.64;92.23;102643.84;5367900;27;20160;-72
2021/12/14 11:12:26;;;;;;;42.30;29.85;;;;;;;8.69;91.55;102641.22;5367737;27;20492;-72
2021/12/14 11:15:09;;;;;;;47.05;34.70;;;;;;;8.75;91.77;102642.22;5361996;27;20399;-70
2021/12/14 11:20:39;;;;;;;33.65;22.52;;;;;;;8.77;92.05;102628.97;5358106;27;20388;-70
2021/12/14 11:23:18;;;;;;;32.42;23.95;;;;;;;8.83;91.72;102633.59;5368018;27;20026;-71
2021/12/14 11:25:49;;;;;;;32.47;23.75;;;;;;;8.83;91.22;102628.06;5366304;27;20022;-69
2021/12/14 11:28:34;;;;;;;34.60;22.95;;;;;;;8.84;91.53;102624.19;5358678;27;20033;-71
2021/12/14 11:31:18;;;;;;;35.50;26.27;;;;;;;8.88;91.51;102619.91;5365132;27;20122;-71
2021/12/14 11:34:03;;;;;;;34.85;24.88;;;;;;;8.89;91.78;102613.28;5361989;27;20079;-71
2021/12/14 11:36:39;;;;;;;34.50;25.05;;;;;;;8.89;91.38;102613.28;5365187;27;20031;-71
2021/12/14 11:39:18;;;;;;;34.17;25.55;;;;;;;8.91;91.36;102616.66;5360835;27;20035;-71
2021/12/14 11:41:59;;;;;;;36.78;25.60;;;;;;;8.97;92.04;102612.94;5357380;27;20023;-71
2021/12/14 11:44:33;;;;;;;35.72;24.80;;;;;;;8.95;91.54;102611.47;5361151;27;20027;-72
2021/12/14 11:47:22;;;;;;;40.65;25.58;;;;;;;8.98;91.26;102608.25;5366892;27;20027;-71
2021/12/14 11:49:55;;;;;;;33.90;24.92;;;;;;;8.96;91.56;102616.78;5360919;27;20105;-71
2021/12/14 11:52:52;;;;;;;36.95;26.13;;;;;;;9.01;91.87;102613.31;5367411;27;20091;-71
2021/12/14 11:55:53;;;;;;;37.38;26.17;;;;;;;9.04;91.15;102610.91;5361380;27;20035;-73
2021/12/14 11:58:36;;;;;;;38.60;26.08;;;;;;;9.05;91.80;102615.38;5359132;27;20409;-72
2021/12/14 12:01:16;;;;;;;35.40;26.45;;;;;;;9.07;91.02;102617.91;5360951;27;20080;-71
2021/12/14 12:03:52;;;;;;;35.78;26.77;;;;;;;9.08;91.07;102619.59;5363536;27;20075;-72
2021/12/14 12:09:43;;;;;;;40.00;26.30;;;;;;;9.12;91.35;102620.81;5287800;28;19923;-74
2021/12/14 12:12:28;;;;;;;36.58;26.70;;;;;;;9.13;91.25;102612.28;5356333;27;20035;-74
2021/12/14 12:15:20;;;;;;;35.23;26.73;;;;;;;9.17;91.80;102617.31;5361689;27;20019;-74
2021/12/14 12:17:56;;;;;;;36.55;25.88;;;;;;;9.21;91.55;102618.56;5360377;27;20333;-70
2021/12/14 12:20:39;;;;;;;44.20;32.40;;;;;;;9.20;91.41;102619.63;5363843;27;20056;-72
2021/12/14 12:23:24;;;;;;;37.30;27.10;;;;;;;9.14;91.21;102619.47;5353446;27;20414;-73
2021/12/14 12:26:08;;;;;;;36.30;27.33;;;;;;;9.18;91.33;102619.00;5361412;27;20776;-71
2021/12/14 12:28:43;;;;;;;39.85;28.25;;;;;;;9.11;91.57;102624.66;5364203;27;20098;-71
2021/12/14 12:31:20;;;;;;;42.42;28.40;;;;;;;9.11;91.49;102624.66;5366783;27;20026;-71
2021/12/14 12:33:55;;;;;;;36.78;27.55;;;;;;;9.10;92.24;102618.28;5366506;27;20037;-71
2021/12/14 12:36:35;;;;;;;42.92;28.67;;;;;;;9.09;92.03;102622.13;5363326;27;20106;-71
2021/12/14 12:39:09;;;;;;;40.45;30.25;;;;;;;9.09;91.68;102622.13;5365481;27;20026;-71
2021/12/14 12:41:52;;;;;;;37.08;28.00;;;;;;;9.17;92.44;102611.78;5365848;27;20030;-72
2021/12/14 12:44:32;;;;;;;39.15;28.60;;;;;;;9.04;91.54;102612.84;5360259;27;20023;-72
2021/12/14 12:47:09;;;;;;;37.47;27.75;;;;;;;9.08;92.40;102608.53;5354733;27;20023;-73
2021/12/14 12:49:54;;;;;;;42.78;29.00;;;;;;;9.08;92.70;102606.59;5370907;27;20022;-73
2021/12/14 12:52:30;;;;;;;46.10;31.10;;;;;;;9.17;91.81;102606.25;5362046;27;20460;-72
2021/12/14 12:55:11;;;;;;;37.35;26.90;;;;;;;9.18;91.82;102605.16;5370443;27;20022;-72
2021/12/14 12:57:58;;;;;;;38.40;26.77;;;;;;;9.23;92.69;102605.28;5363176;27;20058;-73
2021/12/14 13:00:43;;;;;;;42.80;28.70;;;;;;;9.18;92.20;102602.41;5368662;27;20041;-71
2021/12/14 13:03:32;;;;;;;38.22;27.13;;;;;;;9.25;93.03;102603.97;5370034;27;20983;-70
2021/12/14 13:06:14;;;;;;;36.60;25.55;;;;;;;9.39;93.42;102601.84;5369073;27;20023;-69
2021/12/14 13:08:52;;;;;;;42.13;27.45;;;;;;;9.35;92.96;102603.38;5368467;27;20082;-73
2021/12/14 13:11:35;;;;;;;42.42;29.27;;;;;;;9.26;92.13;102605.69;5367122;27;20038;-72
2021/12/14 13:14:10;;;;;;;39.88;28.05;;;;;;;9.26;93.04;102607.59;5366855;27;20042;-72
2021/12/14 13:16:49;;;;;;;40.53;29.27;;;;;;;9.19;92.79;102606.88;5369547;27;20015;-72
2021/12/14 13:19:23;;;;;;;39.13;28.35;;;;;;;9.14;92.88;102605.63;5370054;27;20031;-72
2021/12/14 13:22:01;;;;;;;42.92;29.15;;;;;;;9.12;92.88;102604.19;5368846;27;20399;-72
2021/12/14 13:24:36;;;;;;;38.60;29.00;;;;;;;9.16;93.55;102599.03;5370503;27;20019;-73
2021/12/14 13:27:17;;;;;;;41.22;27.98;;;;;;;9.23;92.60;102600.63;5352030;27;20079;-73
2021/12/14 13:29:56;;;;;;;42.45;27.65;;;;;;;9.20;93.65;102600.25;5355003;27;20547;-72
2021/12/14 13:32:39;;;;;;;58.08;28.48;;;;;;;9.26;92.98;102599.31;5357504;27;20019;-73
2021/12/14 13:35:23;;;;;;;38.30;28.17;;;;;;;9.29;93.08;102594.13;5367259;27;20114;-74
2021/12/14 13:38:00;;;;;;;39.92;28.33;;;;;;;9.29;92.55;102599.66;5365132;27;20430;-74
2021/12/14 13:40:45;;;;;;;46.33;31.90;;;;;;;9.27;93.19;102598.22;5348464;27;20035;-73
2021/12/14 13:43:16;;;;;;;42.75;29.92;;;;;;;9.31;92.74;102597.50;5359227;27;20402;-73
2021/12/14 13:45:51;;;;;;;41.67;28.58;;;;;;;9.28;92.35;102602.66;5367223;27;20029;-72
2021/12/14 13:48:36;;;;;;;37.83;28.05;;;;;;;9.30;92.95;102594.97;5363356;27;20390;-73
2021/12/14 13:51:15;;;;;;;37.80;28.70;;;;;;;9.32;92.41;102599.19;5370260;27;20031;-70
2021/12/14 13:53:55;;;;;;;35.95;27.10;;;;;;;9.43;92.95;102594.72;5357922;27;20430;-73
2021/12/14 13:56:32;;;;;;;38.92;27.27;;;;;;;9.42;92.95;102597.75;5355508;27;20114;-73
2021/12/14 13:59:06;;;;;;;43.05;28.85;;;;;;;9.43;92.66;102591.97;5368587;27;20050;-73
2021/12/14 14:01:49;;;;;;;41.25;29.42;;;;;;;9.47;91.78;102595.13;5363306;27;20027;-74
2021/12/14 14:04:25;;;;;;;39.63;28.60;;;;;;;9.44;92.30;102592.81;5352042;27;20023;-73
2021/12/14 14:06:56;;;;;;;40.80;29.35;;;;;;;9.39;92.33;102587.16;5364647;27;20046;-75
2021/12/14 14:09:29;;;;;;;41.88;28.02;;;;;;;9.39;92.07;102596.31;5365506;27;20077;-76
2021/12/14 14:12:16;;;;;;;40.90;29.25;;;;;;;9.46;92.60;102591.50;5359539;27;20459;-77
2021/12/14 14:14:47;;;;;;;40.33;28.77;;;;;;;9.49;92.15;102593.78;5347983;27;20023;-77
2021/12/14 14:17:23;;;;;;;36.28;29.08;;;;;;;9.46;92.58;102587.88;5348748;27;20031;-77
2021/12/14 14:20:06;;;;;;;;;;;;;;;9.62;93.78;102580.78;5348502;27;20083;-77
2021/12/14 14:22:38;;;;;;;38.08;26.73;;;;;;;9.65;91.92;102591.38;5355312;27;19911;-77
2021/12/14 14:25:22;;;;;;;39.33;27.77;;;;;;;9.69;92.19;102595.34;5369612;27;20026;-77
2021/12/14 14:27:58;;;;;;;30.63;24.35;;;;;;;9.97;93.49;102592.69;5364079;27;20026;-77
2021/12/14 14:30:46;;;;;;;44.05;27.83;;;;;;;9.76;92.37;102593.28;5357543;27;20070;-77
2021/12/14 14:33:42;;;;;;;42.40;31.80;;;;;;;9.76;91.86;102588.59;5365235;27;20087;-77
2021/12/14 14:36:32;;;;;;;32.13;23.75;;;;;;;9.96;92.86;102593.75;5363677;27;20019;-78
2021/12/14 14:39:17;;;;;;;53.22;39.03;;;;;;;9.82;91.28;102585.94;5361195;27;20125;-77
2021/12/14 14:41:57;;;;;;;45.10;33.38;;;;;;;9.77;91.32;102595.84;5361177;27;20027;-76
2021/12/14 14:44:40;;;;;;;43.10;30.05;;;;;;;9.67;90.98;102592.00;5353453;27;20046;-76
2021/12/14 14:47:30;;;;;;;39.95;27.85;;;;;;;9.63;92.10;102593.53;5367854;27;20497;-78
2021/12/14 14:50:06;;;;;;;40.88;28.95;;;;;;;9.64;91.73;102595.22;5364506;27;20026;-79
2021/12/14 14:52:41;;;;;;;39.58;28.10;;;;;;;9.67;92.54;102594.75;5365532;27;20031;-79
2021/12/14 14:55:24;;;;;;;38.65;30.10;;;;;;;9.80;91.86;102594.50;5368756;27;20118;-79
2021/12/14 14:58:01;;;;;;;42.08;29.60;;;;;;;9.63;91.61;102594.38;5359073;27;20039;-80
2021/12/14 15:00:46;;;;;;;40.72;29.65;;;;;;;9.65;92.04;102597.75;5360237;27;20027;-80
2021/12/14 15:03:29;;;;;;;31.80;24.45;;;;;;;9.93;92.98;102596.19;5365433;27;20010;-77
2021/12/14 15:06:27;;;;;;;35.92;26.85;;;;;;;9.74;92.28;102612.09;5367968;27;20462;-80
2021/12/14 15:09:06;;;;;;;35.88;27.38;;;;;;;9.79;91.69;102617.75;5365954;27;20035;-78
2021/12/14 15:11:45;;;;;;;41.10;29.02;;;;;;;9.77;92.15;102617.16;5358435;27;20030;-77
2021/12/14 15:14:36;;;;;;;33.92;26.13;;;;;;;9.79;91.92;102614.97;5352840;27;20034;-78
2021/12/14 15:17:22;;;;;;;37.78;28.17;;;;;;;9.93;91.64;102618.34;5346944;27;20110;-74
2021/12/14 15:19:56;;;;;;;43.85;32.20;;;;;;;9.83;92.29;102623.66;5346634;27;20084;-75
2021/12/14 15:22:34;;;;;;;39.67;30.23;;;;;;;9.82;91.78;102631.13;5359477;27;20462;-76
2021/12/14 15:25:13;;;;;;;31.60;25.55;;;;;;;9.89;91.55;102636.53;5361058;27;20460;-75
2021/12/14 15:27:52;;;;;;;35.45;27.42;;;;;;;9.91;92.61;102632.44;5350519;27;20044;-75
2021/12/14 15:30:47;;;;;;;38.60;28.02;;;;;;;9.91;91.81;102626.06;5351100;27;20036;-75
2021/12/14 15:33:41;;;;;;;41.60;28.73;;;;;;;9.78;91.77;102624.38;5347149;27;20023;-74
2021/12/14 15:36:22;;;;;;;34.15;27.67;;;;;;;10.12;91.63;102624.59;5349673;27;20042;-73
2021/12/14 15:39:01;;;;;;;39.20;28.95;;;;;;;9.87;91.38;102625.72;5357635;27;20106;-72
2021/12/14 15:41:38;;;;;;;34.80;26.92;;;;;;;9.84;90.66;102626.19;5365963;27;20030;-72
2021/12/14 15:44:14;;;;;;;39.22;27.75;;;;;;;10.05;91.76;102630.28;5359117;27;20174;-72
2021/12/14 15:47:05;;;;;;;34.30;26.27;;;;;;;9.92;91.18;102634.16;5365749;27;20031;-73
2021/12/14 15:49:40;;;;;;;35.88;27.48;;;;;;;9.83;90.84;102646.66;5367867;27;20035;-74
2021/12/14 15:52:15;;;;;;;39.85;27.88;;;;;;;9.91;91.45;102635.22;5364515;27;20026;-73
2021/12/14 15:54:53;;;;;;;40.17;29.38;;;;;;;9.81;90.77;102640.53;5364981;27;21633;-77
2021/12/14 15:57:25;;;;;;;36.78;27.50;;;;;;;9.92;91.72;102636.91;5366702;27;20512;-78
2021/12/14 16:00:05;;;;;;;38.20;26.58;;;;;;;9.90;91.81;102638.25;5368027;27;20039;-79
2021/12/14 16:02:39;;;;;;;32.70;26.85;;;;;;;9.85;90.97;102641.72;5364034;27;20027;-79
2021/12/14 16:05:15;;;;;;;39.88;28.20;;;;;;;9.83;91.13;102638.34;5356630;27;20506;-78
2021/12/14 16:07:48;;;;;;;40.13;30.00;;;;;;;9.77;91.26;102636.56;5367657;27;20028;-78
2021/12/14 16:10:22;;;;;;;38.22;27.58;;;;;;;9.77;90.99;102637.41;5366898;27;20033;-78
2021/12/14 16:15:51;;;;;;;61.00;39.40;;;;;;;9.72;91.17;102636.44;5356845;27;20031;-77
2021/12/14 16:18:22;;;;;;;63.03;41.35;;;;;;;9.64;91.25;102642.31;5346611;27;20031;-73
2021/12/14 16:20:59;;;;;;;72.45;44.70;;;;;;;9.73;91.76;102643.66;5358400;27;20038;-72
2021/12/14 16:23:34;;;;;;;39.35;29.50;;;;;;;9.68;91.51;102646.31;5369596;27;20019;-76
2021/12/14 16:26:10;;;;;;;35.78;27.35;;;;;;;9.55;91.38;102639.91;5359895;27;20039;-76
2021/12/14 16:28:55;;;;;;;39.63;28.27;;;;;;;9.51;91.63;102649.78;5365602;27;20034;-77
2021/12/14 16:31:52;;;;;;;38.95;28.15;;;;;;;9.45;92.80;102649.88;5363872;27;20130;-78
2021/12/14 16:34:24;;;;;;;35.80;27.67;;;;;;;9.37;92.54;102648.31;5368614;27;20027;-77
2021/12/14 16:36:59;;;;;;;37.50;27.55;;;;;;;9.35;92.96;102651.31;5371572;27;20042;-83
2021/12/14 16:39:37;;;;;;;37.03;29.35;;;;;;;9.33;92.92;102649.84;5364990;27;20022;-79
2021/12/14 16:42:18;;;;;;;36.65;28.23;;;;;;;9.30;92.63;102650.34;5371488;27;20339;-77
2021/12/14 16:44:54;;;;;;;37.83;28.55;;;;;;;9.34;93.28;102649.63;5372183;27;20387;-76
2021/12/14 16:47:29;;;;;;;44.22;32.88;;;;;;;9.30;92.81;102653.09;5372114;27;20185;-78
2021/12/14 16:50:20;;;;;;;53.97;39.85;;;;;;;9.29;93.30;102649.50;5368661;27;20038;-78
2021/12/14 16:52:53;;;;;;;51.67;36.92;;;;;;;9.27;92.60;102653.59;5372565;27;20029;-78
2021/12/14 16:55:31;;;;;;;60.88;40.60;;;;;;;9.29;93.00;102648.66;5366437;27;20069;-81
2021/12/14 16:58:07;;;;;;;41.15;31.38;;;;;;;9.28;93.35;102658.91;5359449;27;20039;-81
2021/12/14 17:00:55;;;;;;;40.20;31.77;;;;;;;9.30;93.15;102655.88;5354627;27;20027;-81
2021/12/14 17:03:26;;;;;;;39.85;31.00;;;;;;;9.28;93.22;102658.03;5368663;27;20041;-82
2021/12/14 17:06:01;;;;;;;45.05;29.73;;;;;;;9.28;93.26;102660.78;5371954;27;20027;-81
2021/12/14 17:08:36;;;;;;;37.70;28.70;;;;;;;9.25;92.80;102659.34;5357173;27;20023;-80
2021/12/14 17:11:14;;;;;;;38.00;28.75;;;;;;;9.22;93.22;102659.81;5371361;27;20485;-80
2021/12/14 17:13:52;;;;;;;41.20;29.80;;;;;;;9.20;93.25;102667.50;5364217;27;20055;-82
2021/12/14 17:16:35;;;;;;;37.72;29.30;;;;;;;9.20;93.87;102666.69;5372072;27;20045;-81
2021/12/14 17:19:11;;;;;;;36.60;29.17;;;;;;;9.21;93.89;102668.38;5370051;27;20038;-81
2021/12/14 17:21:52;;;;;;;39.05;28.58;;;;;;;9.18;93.78;102668.84;5370814;27;20026;-81
2021/12/14 17:24:37;;;;;;;37.25;28.20;;;;;;;9.16;94.19;102684.84;5373367;27;20027;-80
2021/12/14 17:27:13;;;;;;;41.75;30.45;;;;;;;9.17;93.62;102681.84;5369174;27;20027;-80
2021/12/14 17:29:49;;;;;;;38.17;26.85;;;;;;;9.16;93.50;102687.63;5361281;27;20031;-79
